createdAt,value
2023-03-05T00:02:52.502Z,34.15
2023-03-05T00:05:57.741Z,33.58
2023-03-05T00:09:03.985Z,32.97
2023-03-05T00:12:08.766Z,30.38
2023-03-05T00:15:13.411Z,27.63
2023-03-05T00:18:18.029Z,29.73
2023-03-05T00:21:33.010Z,28.20
2023-03-05T00:24:37.566Z,29.73
2023-03-05T00:27:42.044Z,31.80
2023-03-05T00:30:46.723Z,38.35
2023-03-05T00:33:56.271Z,36.13
2023-03-05T00:37:00.823Z,32.58
2023-03-05T00:40:06.030Z,32.35
2023-03-05T00:43:10.702Z,35.05
2023-03-05T00:46:16.108Z,35.53
2023-03-05T00:49:20.676Z,34.65
2023-03-05T00:52:25.439Z,33.95
2023-03-05T00:55:30.034Z,33.58
2023-03-05T00:58:34.720Z,33.72
2023-03-05T01:01:40.195Z,31.48
2023-03-05T01:04:47.121Z,39.33
2023-03-05T01:07:55.667Z,33.67
2023-03-05T01:11:00.245Z,34.47
2023-03-05T01:14:04.731Z,32.90
2023-03-05T01:17:09.467Z,28.40
2023-03-05T01:20:15.193Z,32.38
2023-03-05T01:23:19.777Z,30.30
2023-03-05T01:26:24.765Z,30.40
2023-03-05T01:29:29.257Z,29.67
2023-03-05T01:32:35.842Z,33.92
2023-03-05T01:35:40.592Z,27.40
2023-03-05T01:38:46.137Z,29.83
2023-03-05T01:41:50.702Z,32.83
2023-03-05T01:45:09.993Z,29.08
2023-03-05T01:48:14.570Z,35.10
2023-03-05T01:51:22.798Z,29.70
2023-03-05T01:54:33.740Z,29.77
2023-03-05T01:57:43.177Z,29.20
2023-03-05T02:00:50.344Z,32.85
2023-03-05T02:03:54.919Z,29.00
2023-03-05T02:06:59.951Z,31.38
2023-03-05T02:10:06.585Z,36.20
2023-03-05T02:13:26.365Z,31.25
2023-03-05T02:16:36.018Z,33.65
2023-03-05T02:19:52.042Z,28.88
2023-03-05T02:22:57.009Z,36.13
2023-03-05T02:26:02.329Z,32.05
2023-03-05T02:29:08.215Z,31.15
2023-03-05T02:32:13.893Z,31.33
2023-03-05T02:35:18.753Z,26.83
2023-03-05T02:38:24.125Z,31.88
2023-03-05T02:41:30.287Z,31.92
2023-03-05T02:44:36.256Z,39.08
2023-03-05T02:47:41.303Z,36.55
2023-03-05T02:50:47.822Z,28.88
2023-03-05T02:53:53.726Z,29.52
2023-03-05T02:57:00.028Z,31.92
2023-03-05T03:00:06.314Z,27.23
2023-03-05T03:03:10.956Z,28.40
2023-03-05T03:06:15.682Z,31.85
2023-03-05T03:09:20.255Z,30.88
2023-03-05T03:12:24.747Z,33.00
2023-03-05T03:15:29.472Z,29.88
2023-03-05T03:18:34.029Z,31.60
2023-03-05T03:21:38.628Z,30.10
2023-03-05T03:24:43.985Z,29.42
2023-03-05T03:27:48.549Z,32.15
2023-03-05T03:30:53.225Z,31.25
2023-03-05T03:33:57.807Z,27.67
2023-03-05T03:37:02.430Z,33.38
2023-03-05T03:40:08.955Z,34.78
2023-03-05T03:43:13.510Z,33.40
2023-03-05T03:46:18.001Z,32.50
2023-03-05T03:49:25.213Z,31.88
2023-03-05T03:52:29.796Z,31.85
2023-03-05T03:55:34.851Z,29.40
2023-03-05T03:58:39.368Z,33.35
2023-03-05T04:01:43.929Z,26.88
2023-03-05T04:04:48.525Z,29.70
2023-03-05T04:07:53.215Z,32.78
2023-03-05T04:10:57.763Z,32.55
2023-03-05T04:14:02.573Z,29.15
2023-03-05T04:17:07.102Z,30.13
2023-03-05T04:20:12.268Z,31.92
2023-03-05T04:23:16.933Z,35.47
2023-03-05T04:26:21.517Z,37.20
2023-03-05T04:29:26.844Z,34.08
2023-03-05T04:32:33.147Z,47.40
2023-03-05T04:35:38.015Z,36.88
2023-03-05T04:38:42.654Z,33.20
2023-03-05T04:41:48.107Z,31.33
2023-03-05T04:44:52.839Z,39.50
2023-03-05T04:47:57.388Z,41.15
2023-03-05T04:51:03.093Z,42.97
2023-03-05T04:54:08.370Z,36.05
2023-03-05T04:57:12.962Z,28.83
2023-03-05T05:00:18.700Z,28.67
2023-03-05T05:03:23.286Z,31.70
2023-03-05T05:06:27.817Z,33.28
2023-03-05T05:09:32.379Z,38.13
2023-03-05T05:12:38.539Z,36.63
2023-03-05T05:15:43.056Z,32.53
2023-03-05T05:18:47.630Z,34.17
2023-03-05T05:21:52.132Z,33.08
2023-03-05T05:24:56.669Z,35.70
2023-03-05T05:28:01.135Z,35.38
2023-03-05T05:31:10.567Z,39.20
2023-03-05T05:34:16.246Z,34.55
2023-03-05T05:37:21.226Z,37.05
2023-03-05T05:40:25.713Z,29.35
2023-03-05T05:43:30.323Z,35.67
2023-03-05T05:46:34.919Z,37.17
2023-03-05T05:49:39.434Z,34.10
2023-03-05T05:52:43.998Z,45.90
2023-03-05T05:55:48.511Z,36.63
2023-03-05T05:58:53.475Z,37.05
2023-03-05T06:01:59.569Z,33.90
2023-03-05T06:05:04.418Z,37.63
2023-03-05T06:08:09.791Z,33.70
2023-03-05T06:11:14.710Z,41.22
2023-03-05T06:14:19.297Z,33.17
2023-03-05T06:17:30.467Z,38.42
2023-03-05T06:20:35.466Z,40.53
2023-03-05T06:23:41.122Z,33.40
2023-03-05T06:26:46.736Z,41.00
2023-03-05T06:29:56.476Z,31.13
2023-03-05T06:33:00.950Z,42.83
2023-03-05T06:36:07.082Z,36.63
2023-03-05T06:39:12.034Z,36.25
2023-03-05T06:42:19.383Z,44.28
2023-03-05T06:45:23.979Z,40.05
2023-03-05T06:48:28.571Z,44.50
2023-03-05T06:51:35.425Z,41.65
2023-03-05T06:54:40.397Z,35.75
2023-03-05T06:57:45.264Z,39.90
2023-03-05T07:00:49.883Z,34.05
2023-03-05T07:03:58.790Z,39.42
2023-03-05T07:07:03.402Z,44.08
2023-03-05T07:10:08.866Z,44.17
2023-03-05T07:13:13.371Z,41.13
2023-03-05T07:16:21.303Z,43.88
2023-03-05T07:19:25.844Z,45.10
2023-03-05T07:22:30.335Z,41.65
2023-03-05T07:25:38.657Z,38.05
2023-03-05T07:28:43.236Z,44.05
2023-03-05T07:31:47.726Z,41.03
2023-03-05T07:34:52.299Z,47.13
2023-03-05T07:37:56.794Z,40.80
2023-03-05T07:41:10.740Z,40.67
2023-03-05T07:44:16.661Z,40.53
2023-03-05T07:47:21.155Z,41.20
2023-03-05T07:50:25.722Z,39.25
2023-03-05T07:53:30.330Z,46.47
2023-03-05T07:56:35.993Z,40.35
2023-03-05T07:59:40.579Z,49.20
2023-03-05T08:02:46.286Z,37.00
2023-03-05T08:05:50.877Z,49.17
2023-03-05T08:08:55.457Z,45.38
2023-03-05T08:12:00.147Z,39.13
2023-03-05T08:15:05.073Z,42.50
2023-03-05T08:18:11.131Z,37.13
2023-03-05T08:21:21.271Z,42.80
2023-03-05T08:24:29.462Z,37.20
2023-03-05T08:27:34.114Z,38.80
2023-03-05T08:30:40.733Z,44.90
2023-03-05T08:33:45.422Z,40.33
2023-03-05T08:36:50.196Z,46.33
2023-03-05T08:39:56.169Z,35.85
2023-03-05T08:43:00.798Z,40.70
2023-03-05T08:46:05.889Z,36.67
2023-03-05T08:49:10.811Z,34.58
2023-03-05T08:52:15.474Z,37.65
2023-03-05T08:55:19.972Z,33.70
2023-03-05T08:58:24.773Z,39.83
2023-03-05T09:01:31.939Z,40.28
2023-03-05T09:04:37.404Z,32.33
2023-03-05T09:07:41.883Z,47.08
2023-03-05T09:10:46.799Z,36.80
2023-03-05T09:13:51.649Z,33.33
2023-03-05T09:16:57.645Z,30.88
2023-03-05T09:20:02.990Z,30.88
2023-03-05T09:23:08.602Z,31.78
2023-03-05T09:26:15.493Z,35.88
2023-03-05T09:29:20.037Z,32.53
2023-03-05T09:32:24.557Z,36.67
2023-03-05T09:35:29.370Z,36.08
2023-03-05T09:38:34.014Z,31.27
2023-03-05T09:41:51.073Z,35.53
2023-03-05T09:45:19.842Z,33.38
2023-03-05T09:48:36.547Z,31.65
2023-03-05T09:51:43.309Z,31.33
2023-03-05T09:54:57.011Z,32.25
2023-03-05T09:58:12.850Z,28.00
2023-03-05T10:01:29.653Z,32.13
2023-03-05T10:04:58.187Z,32.65
2023-03-05T10:08:05.348Z,27.55
2023-03-05T10:11:11.062Z,29.95
2023-03-05T10:14:31.917Z,30.10
2023-03-05T10:18:00.433Z,20.98
2023-03-05T10:21:13.441Z,26.95
2023-03-05T10:27:56.786Z,33.72
2023-03-05T10:31:04.117Z,25.08
2023-03-05T10:34:36.358Z,27.52
2023-03-05T10:38:17.268Z,20.73
2023-03-05T10:41:53.645Z,20.80
2023-03-05T10:44:59.143Z,23.50
2023-03-05T10:48:25.710Z,19.88
2023-03-05T10:51:32.182Z,27.65
2023-03-05T10:54:41.685Z,23.30
2023-03-05T10:57:46.334Z,18.63
2023-03-05T11:01:12.716Z,19.95
2023-03-05T11:04:29.168Z,19.98
2023-03-05T11:07:37.300Z,20.25
2023-03-05T11:10:41.830Z,29.15
2023-03-05T11:13:57.696Z,17.38
2023-03-05T11:17:23.372Z,20.20
2023-03-05T11:20:27.845Z,20.35
2023-03-05T11:23:32.401Z,18.98
2023-03-05T11:26:36.910Z,15.10
2023-03-05T11:29:49.068Z,13.40
2023-03-05T11:33:16.217Z,16.10
2023-03-05T11:36:29.978Z,20.08
2023-03-05T11:39:38.187Z,14.63
2023-03-05T11:42:44.023Z,16.58
2023-03-05T11:45:55.639Z,18.85
2023-03-05T11:49:00.965Z,18.95
2023-03-05T11:52:12.800Z,24.25
2023-03-05T11:55:27.059Z,22.67
2023-03-05T11:58:36.061Z,21.17
2023-03-05T12:01:41.131Z,18.15
2023-03-05T12:04:46.289Z,24.70
2023-03-05T12:07:55.317Z,18.75
2023-03-05T12:11:09.470Z,21.05
2023-03-05T12:14:40.875Z,20.40
2023-03-05T12:17:59.178Z,15.35
2023-03-05T12:21:26.585Z,15.02
2023-03-05T12:24:31.012Z,16.33
2023-03-05T12:27:36.899Z,17.48
2023-03-05T12:30:41.380Z,15.20
2023-03-05T12:33:45.866Z,15.77
2023-03-05T12:36:50.499Z,15.13
2023-03-05T12:40:08.655Z,17.17
2023-03-05T12:43:33.585Z,19.55
2023-03-05T12:46:41.802Z,15.85
2023-03-05T12:49:47.077Z,14.70
2023-03-05T12:52:52.663Z,15.85
2023-03-05T12:56:02.293Z,18.40
2023-03-05T12:59:08.146Z,13.68
2023-03-05T13:02:32.810Z,19.17
2023-03-05T13:05:39.341Z,14.23
2023-03-05T13:08:44.424Z,11.38
2023-03-05T13:11:50.224Z,15.38
2023-03-05T13:14:58.496Z,14.95
2023-03-05T13:18:07.444Z,18.20
2023-03-05T13:21:18.255Z,19.17
2023-03-05T13:24:22.866Z,16.25
2023-03-05T13:27:32.326Z,15.73
2023-03-05T13:30:38.207Z,14.73
2023-03-05T13:33:53.053Z,16.17
2023-03-05T13:36:59.090Z,19.27
2023-03-05T13:40:25.966Z,17.73
2023-03-05T13:43:30.682Z,16.90
2023-03-05T13:46:38.605Z,15.35
2023-03-05T13:49:44.061Z,14.85
2023-03-05T13:52:48.608Z,17.58
2023-03-05T13:55:57.286Z,17.17
2023-03-05T13:59:01.787Z,20.98
2023-03-05T14:02:18.213Z,18.92
2023-03-05T14:05:23.055Z,16.45
2023-03-05T14:08:27.855Z,14.40
2023-03-05T14:11:33.396Z,21.50
2023-03-05T14:14:38.860Z,16.83
2023-03-05T14:17:43.520Z,20.73
2023-03-05T14:21:17.358Z,22.08
2023-03-05T14:24:30.977Z,21.20
2023-03-05T14:27:36.580Z,22.27
2023-03-05T14:30:48.626Z,20.27
2023-03-05T14:33:55.204Z,20.97
2023-03-05T14:37:03.346Z,28.05
2023-03-05T14:40:21.083Z,25.40
2023-03-05T14:43:25.596Z,27.58
2023-03-05T14:46:30.205Z,26.20
2023-03-05T14:49:34.825Z,31.25
2023-03-05T14:52:40.577Z,27.23
2023-03-05T14:55:49.205Z,25.92
2023-03-05T14:58:54.308Z,27.13
2023-03-05T15:01:58.849Z,25.23
2023-03-05T15:05:03.412Z,24.08
2023-03-05T15:08:15.023Z,21.30
2023-03-05T15:11:22.487Z,23.35
2023-03-05T15:14:27.023Z,25.92
2023-03-05T15:17:37.497Z,24.63
2023-03-05T15:20:43.217Z,23.30
2023-03-05T15:23:47.734Z,22.05
2023-03-05T15:26:52.286Z,25.00
2023-03-05T15:29:56.787Z,19.95
2023-03-05T15:33:03.964Z,23.40
2023-03-05T15:36:09.746Z,23.58
2023-03-05T15:39:14.295Z,20.70
2023-03-05T15:42:19.351Z,20.83
2023-03-05T15:45:24.132Z,19.70
2023-03-05T15:48:28.702Z,24.45
2023-03-05T15:51:36.694Z,16.45
2023-03-05T15:54:41.202Z,21.08
2023-03-05T15:57:48.369Z,19.40
2023-03-05T16:00:53.003Z,20.70
2023-03-05T16:03:57.558Z,18.23
2023-03-05T16:07:03.993Z,22.63
2023-03-05T16:10:12.609Z,19.02
2023-03-05T16:13:19.845Z,16.48
2023-03-05T16:16:26.602Z,20.52
2023-03-05T16:19:33.986Z,21.00
2023-03-05T16:22:38.510Z,20.45
2023-03-05T16:25:43.346Z,21.17
2023-03-05T16:28:47.858Z,24.88
2023-03-05T16:31:54.091Z,20.45
2023-03-05T16:34:58.636Z,15.50
2023-03-05T16:38:03.766Z,19.10
2023-03-05T16:41:09.034Z,20.85
2023-03-05T16:44:13.867Z,14.63
2023-03-05T16:47:18.407Z,14.65
2023-03-05T16:50:22.963Z,15.23
2023-03-05T16:53:27.462Z,17.25
2023-03-05T16:56:31.987Z,22.35
2023-03-05T16:59:37.395Z,17.73
2023-03-05T17:02:43.815Z,16.45
2023-03-05T17:05:48.762Z,20.67
2023-03-05T17:08:54.645Z,17.88
2023-03-05T17:11:59.341Z,19.63
2023-03-05T17:15:04.541Z,16.77
2023-03-05T17:18:09.922Z,14.50
2023-03-05T17:21:16.169Z,12.82
2023-03-05T17:24:22.576Z,10.98
2023-03-05T17:27:27.350Z,13.13
2023-03-05T17:30:33.295Z,10.95
2023-03-05T17:33:39.116Z,11.20
2023-03-05T17:36:45.244Z,12.93
2023-03-05T17:39:50.036Z,10.27
2023-03-05T17:42:54.503Z,5.88
2023-03-05T17:46:00.673Z,8.55
2023-03-05T17:49:05.292Z,10.85
2023-03-05T17:52:09.918Z,14.18
2023-03-05T17:55:15.797Z,12.30
2023-03-05T17:58:20.268Z,10.55
2023-03-05T18:01:29.689Z,8.90
2023-03-05T18:04:34.413Z,8.25
2023-03-05T18:07:39.313Z,7.70
2023-03-05T18:10:43.844Z,9.82
2023-03-05T18:13:48.380Z,6.50
2023-03-05T18:16:53.132Z,10.23
2023-03-05T18:19:57.738Z,9.02
2023-03-05T18:23:03.183Z,7.65
2023-03-05T18:26:07.700Z,8.27
2023-03-05T18:29:12.410Z,8.15
2023-03-05T18:32:17.016Z,9.25
2023-03-05T18:35:21.971Z,13.02
2023-03-05T18:38:29.413Z,11.38
2023-03-05T18:41:33.983Z,7.82
2023-03-05T18:44:38.516Z,6.65
2023-03-05T18:47:43.570Z,10.40
2023-03-05T18:50:52.938Z,13.68
2023-03-05T18:53:57.655Z,10.82
2023-03-05T18:57:03.322Z,10.98
2023-03-05T19:00:08.611Z,10.43
2023-03-05T19:03:13.639Z,8.55
2023-03-05T19:06:18.438Z,7.13
2023-03-05T19:09:38.928Z,9.68
2023-03-05T19:12:55.241Z,6.25
2023-03-05T19:16:02.246Z,8.85
2023-03-05T19:19:16.545Z,8.13
2023-03-05T19:22:22.061Z,9.35
2023-03-05T19:25:26.625Z,11.00
2023-03-05T19:28:31.189Z,10.40
2023-03-05T19:31:36.043Z,10.38
2023-03-05T19:34:40.623Z,13.02
2023-03-05T19:37:45.883Z,8.55
2023-03-05T19:40:50.471Z,8.60
2023-03-05T19:43:55.214Z,8.55
2023-03-05T19:46:59.812Z,9.48
2023-03-05T19:50:05.372Z,9.00
2023-03-05T19:53:09.875Z,8.32
2023-03-05T19:56:16.335Z,8.98
2023-03-05T19:59:22.164Z,9.10
2023-03-05T20:02:28.196Z,10.40
2023-03-05T20:05:32.906Z,10.60
2023-03-05T20:08:37.820Z,10.77
2023-03-05T20:11:42.433Z,10.93
2023-03-05T20:14:47.045Z,8.60
2023-03-05T20:17:52.711Z,8.60
2023-03-05T20:21:01.828Z,9.82
2023-03-05T20:24:09.867Z,8.32
2023-03-05T20:27:16.258Z,10.10
2023-03-05T20:30:20.930Z,8.20
2023-03-05T20:33:27.601Z,11.55
2023-03-05T20:36:34.378Z,8.85
2023-03-05T20:39:38.910Z,6.80
2023-03-05T20:42:43.569Z,8.20
2023-03-05T20:45:48.987Z,14.55
2023-03-05T20:48:56.499Z,9.57
2023-03-05T20:52:01.074Z,7.10
2023-03-05T20:55:07.534Z,9.55
2023-03-05T20:58:12.572Z,8.07
2023-03-05T21:01:17.272Z,9.75
2023-03-05T21:04:21.796Z,9.65
2023-03-05T21:07:29.651Z,14.18
2023-03-05T21:10:34.300Z,6.45
2023-03-05T21:13:38.821Z,7.60
2023-03-05T21:16:43.422Z,7.80
2023-03-05T21:19:47.977Z,7.78
2023-03-05T21:22:52.553Z,10.10
2023-03-05T21:25:57.074Z,7.07
2023-03-05T21:29:01.668Z,12.40
2023-03-05T21:32:06.282Z,13.57
2023-03-05T21:35:20.770Z,7.28
2023-03-05T21:38:29.776Z,12.15
2023-03-05T21:41:34.349Z,10.85
2023-03-05T21:44:38.973Z,10.25
2023-03-05T21:47:43.898Z,12.52
2023-03-05T21:50:50.101Z,9.75
2023-03-05T21:53:54.696Z,10.40
2023-03-05T21:56:59.245Z,10.00
2023-03-05T22:00:06.023Z,7.15
2023-03-05T22:03:16.521Z,8.38
2023-03-05T22:06:21.086Z,9.98
2023-03-05T22:09:25.625Z,10.85
2023-03-05T22:12:51.063Z,9.75
2023-03-05T22:15:57.445Z,10.30
2023-03-05T22:19:03.114Z,16.10
2023-03-05T22:22:07.629Z,11.30
2023-03-05T22:25:14.340Z,10.80
2023-03-05T22:28:20.079Z,10.35
2023-03-05T22:31:26.811Z,10.10
2023-03-05T22:34:31.388Z,12.00
2023-03-05T22:37:35.888Z,7.75
2023-03-05T22:40:45.264Z,10.38
2023-03-05T22:43:50.562Z,8.57
2023-03-05T22:46:55.028Z,9.07
2023-03-05T22:49:59.631Z,11.43
2023-03-05T22:53:04.223Z,8.60
2023-03-05T22:56:11.357Z,13.60
2023-03-05T22:59:15.958Z,8.98
2023-03-05T23:02:20.635Z,12.23
2023-03-05T23:05:25.179Z,12.00
2023-03-05T23:08:29.636Z,10.50
2023-03-05T23:11:34.125Z,10.25
2023-03-05T23:14:38.719Z,12.15
2023-03-05T23:17:43.431Z,12.25
2023-03-05T23:20:47.982Z,9.05
2023-03-05T23:23:53.699Z,9.82
2023-03-05T23:26:58.678Z,11.98
2023-03-05T23:30:21.105Z,9.90
2023-03-05T23:33:25.618Z,12.80
2023-03-05T23:36:30.160Z,12.85
2023-03-05T23:39:34.675Z,12.32
2023-03-05T23:42:39.352Z,11.68
2023-03-05T23:45:45.530Z,15.07
2023-03-05T23:48:50.125Z,13.18
2023-03-05T23:51:55.294Z,10.60
2023-03-05T23:54:59.913Z,10.82
2023-03-05T23:58:04.505Z,14.30
